createdAt,value
2019-02-17T00:00:15.136Z,20.90
2019-02-17T00:27:21.250Z,20.90
2019-02-17T00:40:43.924Z,20.90
2019-02-17T00:54:06.696Z,20.90
2019-02-17T01:07:29.545Z,20.90
2019-02-17T01:20:52.371Z,20.90
2019-02-17T01:34:15.132Z,20.90
2019-02-17T01:47:37.986Z,20.90
2019-02-17T02:01:00.764Z,20.90
2019-02-17T02:14:23.640Z,20.90
2019-02-17T02:27:46.433Z,20.80
2019-02-17T03:20:23.755Z,20.80
2019-02-17T03:33:30.967Z,20.80
2019-02-17T03:46:38.116Z,20.80
2019-02-17T03:59:45.270Z,20.70
2019-02-17T04:12:52.412Z,20.70
2019-02-17T04:25:59.686Z,20.80
2019-02-17T04:39:23.654Z,20.70
2019-02-17T04:52:46.303Z,20.70
2019-02-17T05:06:09.240Z,20.70
2019-02-17T05:19:31.954Z,20.70
2019-02-17T05:32:54.915Z,20.70
2019-02-17T05:46:17.637Z,20.70
2019-02-17T05:59:40.418Z,20.60
2019-02-17T06:13:03.241Z,20.60
2019-02-17T06:26:26.047Z,20.60
2019-02-17T06:39:48.863Z,20.60
2019-02-17T06:53:11.694Z,20.50
2019-02-17T07:06:34.624Z,20.50
2019-02-17T07:32:58.997Z,20.80
2019-02-17T07:46:06.120Z,20.40
2019-02-17T07:59:13.388Z,20.60
2019-02-17T08:12:20.665Z,20.70
2019-02-17T08:25:27.812Z,20.80
2019-02-17T08:38:34.952Z,20.90
2019-02-17T08:52:00.757Z,20.90
2019-02-17T09:05:21.631Z,20.90
2019-02-17T09:18:44.322Z,21.00
2019-02-17T09:31:17.999Z,21.10
2019-02-17T09:44:40.826Z,21.50
2019-02-17T09:58:03.605Z,21.40
2019-02-17T10:11:26.462Z,20.80
2019-02-17T10:24:49.269Z,20.70
2019-02-17T10:38:12.094Z,20.60
2019-02-17T10:51:34.914Z,21.00
2019-02-17T11:04:57.912Z,20.90
2019-02-17T11:18:20.503Z,21.00
2019-02-17T11:31:43.326Z,20.90
2019-02-17T11:45:06.162Z,20.90
2019-02-17T11:58:28.997Z,21.10
2019-02-17T12:11:51.798Z,20.80
2019-02-17T12:25:14.690Z,20.60
2019-02-17T12:38:37.537Z,21.00
2019-02-17T12:52:00.388Z,20.90
2019-02-17T13:05:23.057Z,21.10
2019-02-17T13:18:45.854Z,21.20
2019-02-17T13:45:10.454Z,21.30
2019-02-17T13:58:17.672Z,21.60
2019-02-17T14:11:25.046Z,21.70
2019-02-17T14:24:32.217Z,21.90
2019-02-17T14:37:39.419Z,22.00
2019-02-17T14:50:46.719Z,22.20
2019-02-17T15:04:10.196Z,22.20
2019-02-17T15:17:32.907Z,22.20
2019-02-17T15:30:55.785Z,22.30
2019-02-17T15:44:18.652Z,22.30
2019-02-17T15:57:41.495Z,22.20
2019-02-17T16:11:04.179Z,22.10
2019-02-17T16:24:26.965Z,21.90
2019-02-17T16:37:49.858Z,21.70
2019-02-17T16:51:12.633Z,21.80
2019-02-17T17:04:35.458Z,21.70
2019-02-17T17:17:58.284Z,21.90
2019-02-17T17:31:21.322Z,22.00
2019-02-17T17:44:43.891Z,21.70
2019-02-17T17:58:06.721Z,21.70
2019-02-17T18:11:29.545Z,21.60
2019-02-17T18:24:52.336Z,20.10
2019-02-17T18:38:15.183Z,20.40
2019-02-17T18:51:37.937Z,19.50
2019-02-17T19:05:00.803Z,19.50
2019-02-17T19:18:23.570Z,19.20
2019-02-17T19:31:46.463Z,19.10
2019-02-17T19:45:09.357Z,18.40
2019-02-17T19:58:32.049Z,18.70
2019-02-17T20:11:54.865Z,19.80
2019-02-17T20:25:17.883Z,20.10
2019-02-17T20:38:40.470Z,20.30
2019-02-17T20:52:03.425Z,20.50
2019-02-17T21:05:26.503Z,20.50
2019-02-17T21:18:49.207Z,20.60
2019-02-17T21:32:11.758Z,20.60
2019-02-17T21:58:36.418Z,20.80
2019-02-17T22:11:43.645Z,19.30
2019-02-17T22:24:50.784Z,20.40
2019-02-17T22:37:57.945Z,20.60
2019-02-17T22:51:05.291Z,20.60
2019-02-17T23:04:12.506Z,20.60
2019-02-17T23:30:37.638Z,20.60
2019-02-17T23:43:44.969Z,20.60
2019-02-17T23:56:52.528Z,20.60
